sensor_id;sensor_type;location;lat;lon;timestamp;temperature;humidity
21104;DHT22;10710;53.398;-1.514;2023-02-28T00:00:20;7.50;99.90
21104;DHT22;10710;53.398;-1.514;2023-02-28T00:02:46;7.40;99.90
21104;DHT22;10710;53.398;-1.514;2023-02-28T00:05:14;7.30;99.90
21104;DHT22;10710;53.398;-1.514;2023-02-28T00:07:40;7.30;99.90
21104;DHT22;10710;53.398;-1.514;2023-02-28T00:10:07;7.40;99.90
21104;DHT22;10710;53.398;-1.514;2023-02-28T00:12:34;7.40;99.90
21104;DHT22;10710;53.398;-1.514;2023-02-28T00:15:00;7.40;99.90
21104;DHT22;10710;53.398;-1.514;2023-02-28T00:17:26;7.50;99.90
21104;DHT22;10710;53.398;-1.514;2023-02-28T00:19:52;7.60;99.90
21104;DHT22;10710;53.398;-1.514;2023-02-28T00:22:19;7.60;99.90
21104;DHT22;10710;53.398;-1.514;2023-02-28T00:24:45;7.60;99.90
21104;DHT22;10710;53.398;-1.514;2023-02-28T00:27:11;7.70;99.90
21104;DHT22;10710;53.398;-1.514;2023-02-28T00:29:37;7.70;99.90
21104;DHT22;10710;53.398;-1.514;2023-02-28T00:32:03;7.60;99.90
21104;DHT22;10710;53.398;-1.514;2023-02-28T00:34:29;7.50;99.90
21104;DHT22;10710;53.398;-1.514;2023-02-28T00:36:55;7.50;99.90
21104;DHT22;10710;53.398;-1.514;2023-02-28T00:39:21;7.60;99.90
21104;DHT22;10710;53.398;-1.514;2023-02-28T00:41:47;7.50;99.90
21104;DHT22;10710;53.398;-1.514;2023-02-28T00:44:13;7.60;99.90
21104;DHT22;10710;53.398;-1.514;2023-02-28T00:46:38;7.60;99.90
21104;DHT22;10710;53.398;-1.514;2023-02-28T00:49:04;7.50;99.90
21104;DHT22;10710;53.398;-1.514;2023-02-28T00:51:30;7.50;99.90
21104;DHT22;10710;53.398;-1.514;2023-02-28T00:53:56;7.50;99.90
21104;DHT22;10710;53.398;-1.514;2023-02-28T00:56:21;7.50;99.90
21104;DHT22;10710;53.398;-1.514;2023-02-28T00:58:47;7.50;99.90
21104;DHT22;10710;53.398;-1.514;2023-02-28T01:01:13;7.50;99.90
21104;DHT22;10710;53.398;-1.514;2023-02-28T01:03:38;7.50;99.90
21104;DHT22;10710;53.398;-1.514;2023-02-28T01:06:04;7.60;99.90
21104;DHT22;10710;53.398;-1.514;2023-02-28T01:08:30;7.60;99.90
21104;DHT22;10710;53.398;-1.514;2023-02-28T01:10:56;7.40;99.90
21104;DHT22;10710;53.398;-1.514;2023-02-28T01:13:22;7.40;99.90
21104;DHT22;10710;53.398;-1.514;2023-02-28T01:15:54;7.50;99.90
21104;DHT22;10710;53.398;-1.514;2023-02-28T01:18:21;7.60;99.90
21104;DHT22;10710;53.398;-1.514;2023-02-28T01:20:47;7.60;99.90
21104;DHT22;10710;53.398;-1.514;2023-02-28T01:23:13;7.60;99.90
21104;DHT22;10710;53.398;-1.514;2023-02-28T01:25:39;7.60;99.90
21104;DHT22;10710;53.398;-1.514;2023-02-28T01:28:05;7.50;99.90
21104;DHT22;10710;53.398;-1.514;2023-02-28T01:30:31;7.50;99.90
21104;DHT22;10710;53.398;-1.514;2023-02-28T01:32:58;7.50;99.90
21104;DHT22;10710;53.398;-1.514;2023-02-28T01:35:24;7.30;99.90
21104;DHT22;10710;53.398;-1.514;2023-02-28T01:37:49;7.30;99.90
21104;DHT22;10710;53.398;-1.514;2023-02-28T01:40:15;7.30;99.90
21104;DHT22;10710;53.398;-1.514;2023-02-28T01:42:41;7.30;99.90
21104;DHT22;10710;53.398;-1.514;2023-02-28T01:47:49;7.40;99.90
21104;DHT22;10710;53.398;-1.514;2023-02-28T01:50:23;7.50;99.90
21104;DHT22;10710;53.398;-1.514;2023-02-28T01:52:50;7.50;99.90
21104;DHT22;10710;53.398;-1.514;2023-02-28T01:55:18;7.50;99.90
21104;DHT22;10710;53.398;-1.514;2023-02-28T01:57:51;7.60;99.90
21104;DHT22;10710;53.398;-1.514;2023-02-28T02:00:21;7.50;99.90
21104;DHT22;10710;53.398;-1.514;2023-02-28T02:02:51;7.60;99.90
21104;DHT22;10710;53.398;-1.514;2023-02-28T02:05:24;7.60;99.90
21104;DHT22;10710;53.398;-1.514;2023-02-28T02:07:55;7.70;99.90
21104;DHT22;10710;53.398;-1.514;2023-02-28T02:10:41;7.70;99.90
21104;DHT22;10710;53.398;-1.514;2023-02-28T02:13:37;7.70;99.90
21104;DHT22;10710;53.398;-1.514;2023-02-28T02:18:53;7.50;99.90
21104;DHT22;10710;53.398;-1.514;2023-02-28T02:30:08;7.30;99.90
21104;DHT22;10710;53.398;-1.514;2023-02-28T02:32:54;7.30;99.90
21104;DHT22;10710;53.398;-1.514;2023-02-28T02:41:08;7.40;99.90
21104;DHT22;10710;53.398;-1.514;2023-02-28T02:43:53;7.40;99.90
21104;DHT22;10710;53.398;-1.514;2023-02-28T02:46:30;7.40;99.90
21104;DHT22;10710;53.398;-1.514;2023-02-28T02:49:00;7.30;99.90
21104;DHT22;10710;53.398;-1.514;2023-02-28T02:51:28;7.40;99.90
21104;DHT22;10710;53.398;-1.514;2023-02-28T02:56:31;7.30;99.90
21104;DHT22;10710;53.398;-1.514;2023-02-28T02:59:08;7.20;99.90
21104;DHT22;10710;53.398;-1.514;2023-02-28T03:01:35;7.20;99.90
21104;DHT22;10710;53.398;-1.514;2023-02-28T03:04:06;7.20;99.90
21104;DHT22;10710;53.398;-1.514;2023-02-28T03:06:33;7.20;99.90
21104;DHT22;10710;53.398;-1.514;2023-02-28T03:09:00;7.20;99.90
21104;DHT22;10710;53.398;-1.514;2023-02-28T03:11:26;7.20;99.90
21104;DHT22;10710;53.398;-1.514;2023-02-28T03:17:08;7.10;99.90
21104;DHT22;10710;53.398;-1.514;2023-02-28T03:22:41;7.10;99.90
21104;DHT22;10710;53.398;-1.514;2023-02-28T03:25:31;7.10;99.90
21104;DHT22;10710;53.398;-1.514;2023-02-28T03:28:13;7.00;99.90
21104;DHT22;10710;53.398;-1.514;2023-02-28T03:30:56;7.00;99.90
21104;DHT22;10710;53.398;-1.514;2023-02-28T03:33:34;7.00;99.90
21104;DHT22;10710;53.398;-1.514;2023-02-28T03:36:11;7.00;99.90
21104;DHT22;10710;53.398;-1.514;2023-02-28T03:41:17;7.00;99.90
21104;DHT22;10710;53.398;-1.514;2023-02-28T03:43:50;7.00;99.90
21104;DHT22;10710;53.398;-1.514;2023-02-28T03:46:21;7.00;99.90
21104;DHT22;10710;53.398;-1.514;2023-02-28T03:49:01;7.00;99.90
21104;DHT22;10710;53.398;-1.514;2023-02-28T03:51:28;7.10;99.90
21104;DHT22;10710;53.398;-1.514;2023-02-28T03:53:58;7.20;99.90
21104;DHT22;10710;53.398;-1.514;2023-02-28T03:56:34;7.30;99.90
21104;DHT22;10710;53.398;-1.514;2023-02-28T03:59:20;7.30;99.90
21104;DHT22;10710;53.398;-1.514;2023-02-28T04:01:48;7.40;99.90
21104;DHT22;10710;53.398;-1.514;2023-02-28T04:04:15;7.30;99.90
21104;DHT22;10710;53.398;-1.514;2023-02-28T04:06:42;7.30;99.90
21104;DHT22;10710;53.398;-1.514;2023-02-28T04:09:10;7.40;99.90
21104;DHT22;10710;53.398;-1.514;2023-02-28T04:14:08;7.50;99.90
21104;DHT22;10710;53.398;-1.514;2023-02-28T04:16:36;7.40;99.90
21104;DHT22;10710;53.398;-1.514;2023-02-28T04:19:06;7.40;99.90
21104;DHT22;10710;53.398;-1.514;2023-02-28T04:21:38;7.40;99.90
21104;DHT22;10710;53.398;-1.514;2023-02-28T04:24:08;7.30;99.90
21104;DHT22;10710;53.398;-1.514;2023-02-28T04:26:40;7.30;99.90
21104;DHT22;10710;53.398;-1.514;2023-02-28T04:29:06;7.20;99.90
21104;DHT22;10710;53.398;-1.514;2023-02-28T04:31:33;7.20;99.90
21104;DHT22;10710;53.398;-1.514;2023-02-28T04:33:59;7.20;99.90
21104;DHT22;10710;53.398;-1.514;2023-02-28T04:36:25;7.20;99.90
21104;DHT22;10710;53.398;-1.514;2023-02-28T04:38:51;7.20;99.90
21104;DHT22;10710;53.398;-1.514;2023-02-28T04:41:17;7.20;99.90
21104;DHT22;10710;53.398;-1.514;2023-02-28T04:43:43;7.10;99.90
21104;DHT22;10710;53.398;-1.514;2023-02-28T04:46:08;7.20;99.90
21104;DHT22;10710;53.398;-1.514;2023-02-28T04:48:36;7.10;99.90
21104;DHT22;10710;53.398;-1.514;2023-02-28T04:51:04;7.10;99.90
21104;DHT22;10710;53.398;-1.514;2023-02-28T04:53:30;7.10;99.90
21104;DHT22;10710;53.398;-1.514;2023-02-28T04:55:56;7.20;99.90
21104;DHT22;10710;53.398;-1.514;2023-02-28T04:58:22;7.20;99.90
21104;DHT22;10710;53.398;-1.514;2023-02-28T05:00:52;7.20;99.90
21104;DHT22;10710;53.398;-1.514;2023-02-28T05:03:18;7.20;99.90
21104;DHT22;10710;53.398;-1.514;2023-02-28T05:05:46;7.20;99.90
21104;DHT22;10710;53.398;-1.514;2023-02-28T05:08:12;7.10;99.90
21104;DHT22;10710;53.398;-1.514;2023-02-28T05:10:38;7.20;99.90
21104;DHT22;10710;53.398;-1.514;2023-02-28T05:13:03;7.10;99.90
21104;DHT22;10710;53.398;-1.514;2023-02-28T05:15:29;7.10;99.90
21104;DHT22;10710;53.398;-1.514;2023-02-28T05:17:55;7.00;99.90
21104;DHT22;10710;53.398;-1.514;2023-02-28T05:20:20;7.10;99.90
21104;DHT22;10710;53.398;-1.514;2023-02-28T05:22:47;7.10;99.90
21104;DHT22;10710;53.398;-1.514;2023-02-28T05:25:19;7.10;99.90
21104;DHT22;10710;53.398;-1.514;2023-02-28T05:27:45;7.10;99.90
21104;DHT22;10710;53.398;-1.514;2023-02-28T05:30:11;7.10;99.90
21104;DHT22;10710;53.398;-1.514;2023-02-28T05:32:37;7.20;99.90
21104;DHT22;10710;53.398;-1.514;2023-02-28T05:35:05;7.20;99.90
21104;DHT22;10710;53.398;-1.514;2023-02-28T05:37:30;7.10;99.90
21104;DHT22;10710;53.398;-1.514;2023-02-28T05:39:56;7.10;99.90
21104;DHT22;10710;53.398;-1.514;2023-02-28T05:42:22;7.00;99.90
21104;DHT22;10710;53.398;-1.514;2023-02-28T05:44:47;7.10;99.90
21104;DHT22;10710;53.398;-1.514;2023-02-28T05:47:13;7.10;99.90
21104;DHT22;10710;53.398;-1.514;2023-02-28T05:49:41;7.10;99.90
21104;DHT22;10710;53.398;-1.514;2023-02-28T05:52:07;7.20;99.90
21104;DHT22;10710;53.398;-1.514;2023-02-28T05:54:33;7.20;99.90
21104;DHT22;10710;53.398;-1.514;2023-02-28T05:56:59;7.20;99.90
21104;DHT22;10710;53.398;-1.514;2023-02-28T05:59:25;7.10;99.90
21104;DHT22;10710;53.398;-1.514;2023-02-28T06:01:51;7.10;99.90
21104;DHT22;10710;53.398;-1.514;2023-02-28T06:04:20;6.90;99.90
21104;DHT22;10710;53.398;-1.514;2023-02-28T06:06:47;7.00;99.90
21104;DHT22;10710;53.398;-1.514;2023-02-28T06:09:13;6.90;99.90
21104;DHT22;10710;53.398;-1.514;2023-02-28T06:11:39;6.90;99.90
21104;DHT22;10710;53.398;-1.514;2023-02-28T06:14:05;7.00;99.90
21104;DHT22;10710;53.398;-1.514;2023-02-28T06:16:33;7.00;99.90
21104;DHT22;10710;53.398;-1.514;2023-02-28T06:19:01;7.10;99.90
21104;DHT22;10710;53.398;-1.514;2023-02-28T06:21:28;7.20;99.90
21104;DHT22;10710;53.398;-1.514;2023-02-28T06:23:54;7.10;99.90
21104;DHT22;10710;53.398;-1.514;2023-02-28T06:26:20;7.20;99.90
21104;DHT22;10710;53.398;-1.514;2023-02-28T06:28:47;7.20;99.90
21104;DHT22;10710;53.398;-1.514;2023-02-28T06:31:14;7.20;99.90
21104;DHT22;10710;53.398;-1.514;2023-02-28T06:33:41;7.10;99.90
21104;DHT22;10710;53.398;-1.514;2023-02-28T06:36:08;7.20;99.90
21104;DHT22;10710;53.398;-1.514;2023-02-28T06:38:34;7.20;99.90
21104;DHT22;10710;53.398;-1.514;2023-02-28T06:41:00;7.20;99.90
21104;DHT22;10710;53.398;-1.514;2023-02-28T06:43:31;7.10;99.90
21104;DHT22;10710;53.398;-1.514;2023-02-28T06:45:59;7.10;99.90
21104;DHT22;10710;53.398;-1.514;2023-02-28T06:48:26;7.10;99.90
21104;DHT22;10710;53.398;-1.514;2023-02-28T06:51:04;7.10;99.90
21104;DHT22;10710;53.398;-1.514;2023-02-28T06:53:30;7.00;99.90
21104;DHT22;10710;53.398;-1.514;2023-02-28T06:55:56;7.10;99.90
21104;DHT22;10710;53.398;-1.514;2023-02-28T06:58:22;7.20;99.90
21104;DHT22;10710;53.398;-1.514;2023-02-28T07:00:51;7.20;99.90
21104;DHT22;10710;53.398;-1.514;2023-02-28T07:03:17;7.10;99.90
21104;DHT22;10710;53.398;-1.514;2023-02-28T07:05:44;7.00;99.90
21104;DHT22;10710;53.398;-1.514;2023-02-28T07:08:10;7.00;99.90
21104;DHT22;10710;53.398;-1.514;2023-02-28T07:10:38;7.10;99.90
21104;DHT22;10710;53.398;-1.514;2023-02-28T07:13:05;7.10;99.90
21104;DHT22;10710;53.398;-1.514;2023-02-28T07:15:31;7.10;99.90
21104;DHT22;10710;53.398;-1.514;2023-02-28T07:17:57;7.10;99.90
21104;DHT22;10710;53.398;-1.514;2023-02-28T07:20:23;7.10;99.90
21104;DHT22;10710;53.398;-1.514;2023-02-28T07:22:50;7.00;99.90
21104;DHT22;10710;53.398;-1.514;2023-02-28T07:25:25;7.00;99.90
21104;DHT22;10710;53.398;-1.514;2023-02-28T07:27:52;7.20;99.90
21104;DHT22;10710;53.398;-1.514;2023-02-28T07:30:18;7.20;99.90
21104;DHT22;10710;53.398;-1.514;2023-02-28T07:32:44;7.20;99.90
21104;DHT22;10710;53.398;-1.514;2023-02-28T07:35:09;7.30;99.90
21104;DHT22;10710;53.398;-1.514;2023-02-28T07:37:35;7.30;99.90
21104;DHT22;10710;53.398;-1.514;2023-02-28T07:40:06;7.20;99.90
21104;DHT22;10710;53.398;-1.514;2023-02-28T07:42:37;7.10;99.90
21104;DHT22;10710;53.398;-1.514;2023-02-28T07:45:04;7.10;99.90
21104;DHT22;10710;53.398;-1.514;2023-02-28T07:47:30;7.10;99.90
21104;DHT22;10710;53.398;-1.514;2023-02-28T07:49:56;7.20;99.90
21104;DHT22;10710;53.398;-1.514;2023-02-28T07:52:22;7.30;99.90
21104;DHT22;10710;53.398;-1.514;2023-02-28T07:54:52;7.40;99.90
21104;DHT22;10710;53.398;-1.514;2023-02-28T07:57:18;7.30;99.90
21104;DHT22;10710;53.398;-1.514;2023-02-28T07:59:43;7.30;99.90
21104;DHT22;10710;53.398;-1.514;2023-02-28T08:02:14;7.30;99.90
21104;DHT22;10710;53.398;-1.514;2023-02-28T08:04:40;7.30;99.90
21104;DHT22;10710;53.398;-1.514;2023-02-28T08:07:05;7.30;99.90
21104;DHT22;10710;53.398;-1.514;2023-02-28T08:09:31;7.30;99.90
21104;DHT22;10710;53.398;-1.514;2023-02-28T08:11:57;7.30;99.90
21104;DHT22;10710;53.398;-1.514;2023-02-28T08:14:23;7.30;99.90
21104;DHT22;10710;53.398;-1.514;2023-02-28T08:16:49;7.40;99.90
21104;DHT22;10710;53.398;-1.514;2023-02-28T08:19:14;7.50;99.90
21104;DHT22;10710;53.398;-1.514;2023-02-28T08:21:40;7.50;99.90
21104;DHT22;10710;53.398;-1.514;2023-02-28T08:24:06;7.50;99.90
21104;DHT22;10710;53.398;-1.514;2023-02-28T08:26:32;7.40;99.90
21104;DHT22;10710;53.398;-1.514;2023-02-28T08:28:58;7.50;99.90
21104;DHT22;10710;53.398;-1.514;2023-02-28T08:31:23;7.50;99.90
21104;DHT22;10710;53.398;-1.514;2023-02-28T08:33:49;7.40;99.90
21104;DHT22;10710;53.398;-1.514;2023-02-28T08:36:17;7.40;99.90
21104;DHT22;10710;53.398;-1.514;2023-02-28T08:38:43;7.30;99.90
21104;DHT22;10710;53.398;-1.514;2023-02-28T08:41:11;7.30;99.90
21104;DHT22;10710;53.398;-1.514;2023-02-28T08:43:37;7.30;99.90
21104;DHT22;10710;53.398;-1.514;2023-02-28T08:46:03;7.30;99.90
21104;DHT22;10710;53.398;-1.514;2023-02-28T08:48:31;7.40;99.90
21104;DHT22;10710;53.398;-1.514;2023-02-28T08:51:08;7.40;99.90
21104;DHT22;10710;53.398;-1.514;2023-02-28T08:53:38;7.50;99.90
21104;DHT22;10710;53.398;-1.514;2023-02-28T08:56:07;7.60;99.90
21104;DHT22;10710;53.398;-1.514;2023-02-28T08:58:34;7.60;99.90
21104;DHT22;10710;53.398;-1.514;2023-02-28T09:01:00;7.60;99.90
21104;DHT22;10710;53.398;-1.514;2023-02-28T09:03:26;7.60;99.90
21104;DHT22;10710;53.398;-1.514;2023-02-28T09:06:00;7.70;99.90
21104;DHT22;10710;53.398;-1.514;2023-02-28T09:08:28;7.70;99.90
21104;DHT22;10710;53.398;-1.514;2023-02-28T09:10:56;7.70;99.90
21104;DHT22;10710;53.398;-1.514;2023-02-28T09:13:24;7.70;99.90
21104;DHT22;10710;53.398;-1.514;2023-02-28T09:15:50;7.60;99.90
21104;DHT22;10710;53.398;-1.514;2023-02-28T09:18:16;7.80;99.90
21104;DHT22;10710;53.398;-1.514;2023-02-28T09:20:43;7.90;99.90
21104;DHT22;10710;53.398;-1.514;2023-02-28T09:23:10;7.80;99.90
21104;DHT22;10710;53.398;-1.514;2023-02-28T09:25:37;7.90;99.90
21104;DHT22;10710;53.398;-1.514;2023-02-28T09:28:03;8.00;99.90
21104;DHT22;10710;53.398;-1.514;2023-02-28T09:30:30;8.00;99.90
21104;DHT22;10710;53.398;-1.514;2023-02-28T09:32:55;8.00;99.90
21104;DHT22;10710;53.398;-1.514;2023-02-28T09:35:22;8.10;99.90
21104;DHT22;10710;53.398;-1.514;2023-02-28T09:37:49;8.20;99.90
21104;DHT22;10710;53.398;-1.514;2023-02-28T09:40:15;8.30;99.90
21104;DHT22;10710;53.398;-1.514;2023-02-28T09:42:45;8.30;99.90
21104;DHT22;10710;53.398;-1.514;2023-02-28T09:45:36;8.50;99.90
21104;DHT22;10710;53.398;-1.514;2023-02-28T09:48:19;8.50;99.90
21104;DHT22;10710;53.398;-1.514;2023-02-28T09:50:59;8.40;99.90
21104;DHT22;10710;53.398;-1.514;2023-02-28T09:53:29;8.30;99.90
21104;DHT22;10710;53.398;-1.514;2023-02-28T09:56:19;8.40;99.90
21104;DHT22;10710;53.398;-1.514;2023-02-28T10:06:51;8.70;99.90
21104;DHT22;10710;53.398;-1.514;2023-02-28T10:09:30;8.80;99.90
21104;DHT22;10710;53.398;-1.514;2023-02-28T10:12:02;8.60;99.90
21104;DHT22;10710;53.398;-1.514;2023-02-28T10:14:30;8.70;99.90
21104;DHT22;10710;53.398;-1.514;2023-02-28T10:17:14;8.80;99.90
21104;DHT22;10710;53.398;-1.514;2023-02-28T10:25:15;8.80;99.90
21104;DHT22;10710;53.398;-1.514;2023-02-28T10:27:42;8.70;99.90
21104;DHT22;10710;53.398;-1.514;2023-02-28T10:30:10;8.50;99.90
21104;DHT22;10710;53.398;-1.514;2023-02-28T10:32:38;8.50;99.90
21104;DHT22;10710;53.398;-1.514;2023-02-28T10:35:24;8.90;99.90
21104;DHT22;10710;53.398;-1.514;2023-02-28T10:37:57;9.00;99.90
21104;DHT22;10710;53.398;-1.514;2023-02-28T10:43:04;9.10;99.90
21104;DHT22;10710;53.398;-1.514;2023-02-28T10:45:32;9.10;99.90
21104;DHT22;10710;53.398;-1.514;2023-02-28T10:53:17;9.40;99.90
21104;DHT22;10710;53.398;-1.514;2023-02-28T11:03:58;9.20;99.90
21104;DHT22;10710;53.398;-1.514;2023-02-28T11:06:32;9.00;99.90
21104;DHT22;10710;53.398;-1.514;2023-02-28T11:09:01;9.20;99.90
21104;DHT22;10710;53.398;-1.514;2023-02-28T11:11:30;9.30;99.90
21104;DHT22;10710;53.398;-1.514;2023-02-28T11:14:03;9.60;99.90
21104;DHT22;10710;53.398;-1.514;2023-02-28T11:16:37;9.50;99.90
21104;DHT22;10710;53.398;-1.514;2023-02-28T11:19:05;9.30;99.90
21104;DHT22;10710;53.398;-1.514;2023-02-28T11:21:36;9.40;99.90
21104;DHT22;10710;53.398;-1.514;2023-02-28T11:24:26;9.40;99.90
21104;DHT22;10710;53.398;-1.514;2023-02-28T11:26:54;9.40;99.90
21104;DHT22;10710;53.398;-1.514;2023-02-28T11:29:31;9.50;99.90
21104;DHT22;10710;53.398;-1.514;2023-02-28T11:34:29;9.60;99.90
21104;DHT22;10710;53.398;-1.514;2023-02-28T11:36:56;9.70;99.90
21104;DHT22;10710;53.398;-1.514;2023-02-28T11:39:23;9.50;99.90
21104;DHT22;10710;53.398;-1.514;2023-02-28T12:01:24;9.40;99.90
21104;DHT22;10710;53.398;-1.514;2023-02-28T12:06:48;9.50;99.90
21104;DHT22;10710;53.398;-1.514;2023-02-28T12:15:36;10.00;99.90
21104;DHT22;10710;53.398;-1.514;2023-02-28T12:18:26;9.90;99.90
21104;DHT22;10710;53.398;-1.514;2023-02-28T12:21:11;10.00;99.90
21104;DHT22;10710;53.398;-1.514;2023-02-28T12:23:47;10.00;99.90
21104;DHT22;10710;53.398;-1.514;2023-02-28T12:29:12;9.70;99.90
21104;DHT22;10710;53.398;-1.514;2023-02-28T12:31:43;9.80;99.90
21104;DHT22;10710;53.398;-1.514;2023-02-28T12:34:15;9.90;99.90
21104;DHT22;10710;53.398;-1.514;2023-02-28T12:36:43;9.70;99.90
21104;DHT22;10710;53.398;-1.514;2023-02-28T12:39:33;9.70;99.90
21104;DHT22;10710;53.398;-1.514;2023-02-28T12:42:15;9.70;99.90
21104;DHT22;10710;53.398;-1.514;2023-02-28T12:44:47;9.80;99.90
21104;DHT22;10710;53.398;-1.514;2023-02-28T12:47:16;10.20;99.90
21104;DHT22;10710;53.398;-1.514;2023-02-28T12:55:42;10.00;99.90
21104;DHT22;10710;53.398;-1.514;2023-02-28T12:58:30;9.80;99.90
21104;DHT22;10710;53.398;-1.514;2023-02-28T13:09:12;9.90;99.90
21104;DHT22;10710;53.398;-1.514;2023-02-28T13:14:30;9.70;99.90
21104;DHT22;10710;53.398;-1.514;2023-02-28T13:19:45;9.50;99.90
21104;DHT22;10710;53.398;-1.514;2023-02-28T13:24:53;9.70;99.90
21104;DHT22;10710;53.398;-1.514;2023-02-28T13:27:40;9.60;99.90
21104;DHT22;10710;53.398;-1.514;2023-02-28T13:33:26;9.10;99.90
21104;DHT22;10710;53.398;-1.514;2023-02-28T13:44:22;9.20;99.90
21104;DHT22;10710;53.398;-1.514;2023-02-28T13:49:28;9.30;99.90
21104;DHT22;10710;53.398;-1.514;2023-02-28T13:57:14;9.40;99.90
21104;DHT22;10710;53.398;-1.514;2023-02-28T14:02:37;9.10;99.90
21104;DHT22;10710;53.398;-1.514;2023-02-28T14:05:17;8.90;99.90
21104;DHT22;10710;53.398;-1.514;2023-02-28T14:07:45;8.60;99.90
21104;DHT22;10710;53.398;-1.514;2023-02-28T14:10:28;8.30;99.90
21104;DHT22;10710;53.398;-1.514;2023-02-28T14:20:43;8.30;99.90
21104;DHT22;10710;53.398;-1.514;2023-02-28T14:23:34;8.40;99.90
21104;DHT22;10710;53.398;-1.514;2023-02-28T14:31:45;8.50;99.90
21104;DHT22;10710;53.398;-1.514;2023-02-28T14:34:31;8.50;99.90
21104;DHT22;10710;53.398;-1.514;2023-02-28T14:37:02;8.60;99.90
21104;DHT22;10710;53.398;-1.514;2023-02-28T14:39:29;8.80;99.90
21104;DHT22;10710;53.398;-1.514;2023-02-28T14:41:58;8.90;99.90
21104;DHT22;10710;53.398;-1.514;2023-02-28T14:44:28;8.90;99.90
21104;DHT22;10710;53.398;-1.514;2023-02-28T14:47:02;8.90;99.90
21104;DHT22;10710;53.398;-1.514;2023-02-28T14:49:34;8.80;99.90
21104;DHT22;10710;53.398;-1.514;2023-02-28T14:52:09;8.60;99.90
21104;DHT22;10710;53.398;-1.514;2023-02-28T14:54:38;8.50;99.90
21104;DHT22;10710;53.398;-1.514;2023-02-28T14:57:05;8.40;99.90
21104;DHT22;10710;53.398;-1.514;2023-02-28T14:59:35;8.40;99.90
21104;DHT22;10710;53.398;-1.514;2023-02-28T15:02:18;8.50;99.90
21104;DHT22;10710;53.398;-1.514;2023-02-28T15:04:53;8.60;99.90
21104;DHT22;10710;53.398;-1.514;2023-02-28T15:07:20;8.70;99.90
21104;DHT22;10710;53.398;-1.514;2023-02-28T15:10:07;8.80;99.90
21104;DHT22;10710;53.398;-1.514;2023-02-28T15:12:34;9.10;99.90
21104;DHT22;10710;53.398;-1.514;2023-02-28T15:15:01;9.20;99.90
21104;DHT22;10710;53.398;-1.514;2023-02-28T15:17:27;9.50;99.90
21104;DHT22;10710;53.398;-1.514;2023-02-28T15:19:53;9.40;99.90
21104;DHT22;10710;53.398;-1.514;2023-02-28T15:22:28;9.30;99.90
21104;DHT22;10710;53.398;-1.514;2023-02-28T15:24:56;9.40;99.90
21104;DHT22;10710;53.398;-1.514;2023-02-28T15:27:28;9.30;99.90
21104;DHT22;10710;53.398;-1.514;2023-02-28T15:29:59;9.30;99.90
21104;DHT22;10710;53.398;-1.514;2023-02-28T15:32:30;9.40;99.90
21104;DHT22;10710;53.398;-1.514;2023-02-28T15:34:56;9.40;99.90
21104;DHT22;10710;53.398;-1.514;2023-02-28T15:37:47;9.30;99.90
21104;DHT22;10710;53.398;-1.514;2023-02-28T15:40:17;9.30;99.90
21104;DHT22;10710;53.398;-1.514;2023-02-28T15:43:05;9.20;99.90
21104;DHT22;10710;53.398;-1.514;2023-02-28T15:48:34;8.90;99.90
21104;DHT22;10710;53.398;-1.514;2023-02-28T15:51:32;8.60;99.90
21104;DHT22;10710;53.398;-1.514;2023-02-28T15:53:59;8.50;99.90
21104;DHT22;10710;53.398;-1.514;2023-02-28T15:56:31;8.60;99.90
21104;DHT22;10710;53.398;-1.514;2023-02-28T15:59:02;8.70;99.90
21104;DHT22;10710;53.398;-1.514;2023-02-28T16:01:32;8.70;99.90
21104;DHT22;10710;53.398;-1.514;2023-02-28T16:04:13;8.70;99.90
21104;DHT22;10710;53.398;-1.514;2023-02-28T16:06:43;8.70;99.90
21104;DHT22;10710;53.398;-1.514;2023-02-28T16:09:16;8.80;99.90
21104;DHT22;10710;53.398;-1.514;2023-02-28T16:11:46;8.80;99.90
21104;DHT22;10710;53.398;-1.514;2023-02-28T16:14:20;8.80;99.90
21104;DHT22;10710;53.398;-1.514;2023-02-28T16:17:04;8.80;99.90
21104;DHT22;10710;53.398;-1.514;2023-02-28T16:19:29;8.70;99.90
21104;DHT22;10710;53.398;-1.514;2023-02-28T16:21:56;8.70;99.90
21104;DHT22;10710;53.398;-1.514;2023-02-28T16:24:22;8.60;99.90
21104;DHT22;10710;53.398;-1.514;2023-02-28T16:26:49;8.60;99.90
21104;DHT22;10710;53.398;-1.514;2023-02-28T16:29:24;8.40;99.90
21104;DHT22;10710;53.398;-1.514;2023-02-28T16:31:51;8.50;99.90
21104;DHT22;10710;53.398;-1.514;2023-02-28T16:34:19;8.60;99.90
21104;DHT22;10710;53.398;-1.514;2023-02-28T16:36:47;8.70;99.90
21104;DHT22;10710;53.398;-1.514;2023-02-28T16:39:13;8.80;99.90
21104;DHT22;10710;53.398;-1.514;2023-02-28T16:41:43;8.90;99.90
21104;DHT22;10710;53.398;-1.514;2023-02-28T16:44:21;8.80;99.90
21104;DHT22;10710;53.398;-1.514;2023-02-28T16:46:49;8.90;99.90
21104;DHT22;10710;53.398;-1.514;2023-02-28T16:49:15;8.80;99.90
21104;DHT22;10710;53.398;-1.514;2023-02-28T16:51:41;8.80;99.90
21104;DHT22;10710;53.398;-1.514;2023-02-28T16:54:06;8.80;99.90
21104;DHT22;10710;53.398;-1.514;2023-02-28T16:56:32;8.80;99.90
21104;DHT22;10710;53.398;-1.514;2023-02-28T16:59:01;8.70;99.90
21104;DHT22;10710;53.398;-1.514;2023-02-28T17:01:27;8.60;99.90
21104;DHT22;10710;53.398;-1.514;2023-02-28T17:03:53;8.40;99.90
21104;DHT22;10710;53.398;-1.514;2023-02-28T17:06:29;8.50;99.90
21104;DHT22;10710;53.398;-1.514;2023-02-28T17:08:56;8.50;99.90
21104;DHT22;10710;53.398;-1.514;2023-02-28T17:11:22;8.50;99.90
21104;DHT22;10710;53.398;-1.514;2023-02-28T17:13:48;8.40;99.90
21104;DHT22;10710;53.398;-1.514;2023-02-28T17:16:30;8.40;99.90
21104;DHT22;10710;53.398;-1.514;2023-02-28T17:19:02;8.30;99.90
21104;DHT22;10710;53.398;-1.514;2023-02-28T17:21:29;8.20;99.90
21104;DHT22;10710;53.398;-1.514;2023-02-28T17:23:54;8.10;99.90
21104;DHT22;10710;53.398;-1.514;2023-02-28T17:26:21;8.00;99.90
21104;DHT22;10710;53.398;-1.514;2023-02-28T17:28:50;8.10;99.90
21104;DHT22;10710;53.398;-1.514;2023-02-28T17:31:16;7.90;99.90
21104;DHT22;10710;53.398;-1.514;2023-02-28T17:33:42;7.80;99.90
21104;DHT22;10710;53.398;-1.514;2023-02-28T17:36:16;7.70;99.90
21104;DHT22;10710;53.398;-1.514;2023-02-28T17:38:43;7.70;99.90
21104;DHT22;10710;53.398;-1.514;2023-02-28T17:41:10;7.70;99.90
21104;DHT22;10710;53.398;-1.514;2023-02-28T17:43:36;7.80;99.90
21104;DHT22;10710;53.398;-1.514;2023-02-28T17:46:02;7.80;99.90
21104;DHT22;10710;53.398;-1.514;2023-02-28T17:48:30;7.80;99.90
21104;DHT22;10710;53.398;-1.514;2023-02-28T17:50:57;7.70;99.90
21104;DHT22;10710;53.398;-1.514;2023-02-28T17:53:22;7.60;99.90
21104;DHT22;10710;53.398;-1.514;2023-02-28T17:55:49;7.70;99.90
21104;DHT22;10710;53.398;-1.514;2023-02-28T17:58:15;7.70;99.90
21104;DHT22;10710;53.398;-1.514;2023-02-28T18:00:41;7.60;99.90
21104;DHT22;10710;53.398;-1.514;2023-02-28T18:03:07;7.60;99.90
21104;DHT22;10710;53.398;-1.514;2023-02-28T18:05:33;7.60;99.90
21104;DHT22;10710;53.398;-1.514;2023-02-28T18:08:01;7.60;99.90
21104;DHT22;10710;53.398;-1.514;2023-02-28T18:10:27;7.60;99.90
21104;DHT22;10710;53.398;-1.514;2023-02-28T18:12:53;7.70;99.90
21104;DHT22;10710;53.398;-1.514;2023-02-28T18:15:21;7.60;99.90
21104;DHT22;10710;53.398;-1.514;2023-02-28T18:17:48;7.70;99.90
21104;DHT22;10710;53.398;-1.514;2023-02-28T18:20:14;7.70;99.90
21104;DHT22;10710;53.398;-1.514;2023-02-28T18:22:41;7.80;99.90